sensor_id;sensor_type;location;lat;lon;timestamp;temperature;humidity
40960;DHT22;27842;52.272;8.052;2023-05-10T00:01:46;16.00;99.90
40960;DHT22;27842;52.272;8.052;2023-05-10T00:04:11;16.00;99.90
40960;DHT22;27842;52.272;8.052;2023-05-10T00:06:37;16.00;99.90
40960;DHT22;27842;52.272;8.052;2023-05-10T00:09:03;16.00;99.90
40960;DHT22;27842;52.272;8.052;2023-05-10T00:11:29;16.10;99.90
40960;DHT22;27842;52.272;8.052;2023-05-10T00:13:54;16.00;99.90
40960;DHT22;27842;52.272;8.052;2023-05-10T00:16:20;16.00;99.90
40960;DHT22;27842;52.272;8.052;2023-05-10T00:18:46;16.00;99.90
40960;DHT22;27842;52.272;8.052;2023-05-10T00:21:11;16.00;99.90
40960;DHT22;27842;52.272;8.052;2023-05-10T00:23:37;16.00;99.90
40960;DHT22;27842;52.272;8.052;2023-05-10T00:26:02;16.00;99.90
40960;DHT22;27842;52.272;8.052;2023-05-10T00:28:30;15.90;99.90
40960;DHT22;27842;52.272;8.052;2023-05-10T00:30:56;15.90;99.90
40960;DHT22;27842;52.272;8.052;2023-05-10T00:33:22;15.90;99.90
40960;DHT22;27842;52.272;8.052;2023-05-10T00:35:47;15.90;99.90
40960;DHT22;27842;52.272;8.052;2023-05-10T00:38:13;15.90;99.90
40960;DHT22;27842;52.272;8.052;2023-05-10T00:40:39;15.90;99.90
40960;DHT22;27842;52.272;8.052;2023-05-10T00:43:05;15.90;99.90
40960;DHT22;27842;52.272;8.052;2023-05-10T00:45:35;15.90;99.90
40960;DHT22;27842;52.272;8.052;2023-05-10T00:48:02;15.90;99.90
40960;DHT22;27842;52.272;8.052;2023-05-10T00:50:28;15.90;99.90
40960;DHT22;27842;52.272;8.052;2023-05-10T00:52:54;15.90;99.90
40960;DHT22;27842;52.272;8.052;2023-05-10T00:55:20;15.90;99.90
40960;DHT22;27842;52.272;8.052;2023-05-10T00:57:47;15.80;99.90
40960;DHT22;27842;52.272;8.052;2023-05-10T01:00:12;15.80;99.90
40960;DHT22;27842;52.272;8.052;2023-05-10T01:02:44;15.80;99.90
40960;DHT22;27842;52.272;8.052;2023-05-10T01:05:09;15.80;99.90
40960;DHT22;27842;52.272;8.052;2023-05-10T01:07:35;15.80;99.90
40960;DHT22;27842;52.272;8.052;2023-05-10T01:10:01;15.80;99.90
40960;DHT22;27842;52.272;8.052;2023-05-10T01:12:26;15.80;99.90
40960;DHT22;27842;52.272;8.052;2023-05-10T01:14:52;15.70;99.90
40960;DHT22;27842;52.272;8.052;2023-05-10T01:17:19;15.80;99.90
40960;DHT22;27842;52.272;8.052;2023-05-10T01:19:45;15.70;99.90
40960;DHT22;27842;52.272;8.052;2023-05-10T01:22:32;15.70;99.90
40960;DHT22;27842;52.272;8.052;2023-05-10T01:33:24;15.70;99.90
40960;DHT22;27842;52.272;8.052;2023-05-10T01:36:05;15.70;99.90
40960;DHT22;27842;52.272;8.052;2023-05-10T01:38:43;15.60;99.90
40960;DHT22;27842;52.272;8.052;2023-05-10T01:46:50;15.60;99.90
40960;DHT22;27842;52.272;8.052;2023-05-10T01:49:29;15.70;99.90
40960;DHT22;27842;52.272;8.052;2023-05-10T01:52:04;15.70;99.90
40960;DHT22;27842;52.272;8.052;2023-05-10T01:54:33;15.60;99.90
40960;DHT22;27842;52.272;8.052;2023-05-10T01:57:03;15.60;99.90
40960;DHT22;27842;52.272;8.052;2023-05-10T01:59:33;15.60;99.90
40960;DHT22;27842;52.272;8.052;2023-05-10T02:02:02;15.60;99.90
40960;DHT22;27842;52.272;8.052;2023-05-10T02:04:30;15.60;99.90
40960;DHT22;27842;52.272;8.052;2023-05-10T02:06:56;15.60;99.90
40960;DHT22;27842;52.272;8.052;2023-05-10T02:09:23;15.60;99.90
40960;DHT22;27842;52.272;8.052;2023-05-10T02:11:50;15.60;99.90
40960;DHT22;27842;52.272;8.052;2023-05-10T02:14:16;15.50;99.90
40960;DHT22;27842;52.272;8.052;2023-05-10T02:16:44;15.60;99.90
40960;DHT22;27842;52.272;8.052;2023-05-10T02:19:12;15.50;99.90
40960;DHT22;27842;52.272;8.052;2023-05-10T02:21:40;15.50;99.90
40960;DHT22;27842;52.272;8.052;2023-05-10T02:24:07;15.50;99.90
40960;DHT22;27842;52.272;8.052;2023-05-10T02:26:35;15.50;99.90
40960;DHT22;27842;52.272;8.052;2023-05-10T02:29:02;15.50;99.90
40960;DHT22;27842;52.272;8.052;2023-05-10T02:31:31;15.40;99.90
40960;DHT22;27842;52.272;8.052;2023-05-10T02:33:59;15.50;99.90
40960;DHT22;27842;52.272;8.052;2023-05-10T02:36:27;15.50;99.90
40960;DHT22;27842;52.272;8.052;2023-05-10T02:38:54;15.50;99.90
40960;DHT22;27842;52.272;8.052;2023-05-10T02:41:23;15.40;99.90
40960;DHT22;27842;52.272;8.052;2023-05-10T02:43:51;15.40;99.90
40960;DHT22;27842;52.272;8.052;2023-05-10T02:46:18;15.40;99.90
40960;DHT22;27842;52.272;8.052;2023-05-10T02:48:44;15.40;99.90
40960;DHT22;27842;52.272;8.052;2023-05-10T02:51:12;15.40;99.90
40960;DHT22;27842;52.272;8.052;2023-05-10T02:53:43;15.40;99.90
40960;DHT22;27842;52.272;8.052;2023-05-10T02:56:20;15.40;99.90
40960;DHT22;27842;52.272;8.052;2023-05-10T02:58:48;15.30;99.90
40960;DHT22;27842;52.272;8.052;2023-05-10T03:01:14;15.40;99.90
40960;DHT22;27842;52.272;8.052;2023-05-10T03:03:40;15.30;99.90
40960;DHT22;27842;52.272;8.052;2023-05-10T03:06:06;15.30;99.90
40960;DHT22;27842;52.272;8.052;2023-05-10T03:08:31;15.30;99.90
40960;DHT22;27842;52.272;8.052;2023-05-10T03:13:49;15.10;99.90
40960;DHT22;27842;52.272;8.052;2023-05-10T03:16:22;15.00;99.90
40960;DHT22;27842;52.272;8.052;2023-05-10T03:19:43;15.00;99.90
40960;DHT22;27842;52.272;8.052;2023-05-10T03:22:04;15.00;99.90
40960;DHT22;27842;52.272;8.052;2023-05-10T03:24:34;15.00;99.90
40960;DHT22;27842;52.272;8.052;2023-05-10T03:27:01;14.90;99.90
40960;DHT22;27842;52.272;8.052;2023-05-10T03:29:28;14.90;99.90
40960;DHT22;27842;52.272;8.052;2023-05-10T03:31:55;14.90;99.90
40960;DHT22;27842;52.272;8.052;2023-05-10T03:34:24;14.80;99.90
40960;DHT22;27842;52.272;8.052;2023-05-10T03:36:50;14.80;99.90
40960;DHT22;27842;52.272;8.052;2023-05-10T03:39:15;14.80;99.90
40960;DHT22;27842;52.272;8.052;2023-05-10T03:41:41;14.70;99.90
40960;DHT22;27842;52.272;8.052;2023-05-10T03:44:07;14.70;99.90
40960;DHT22;27842;52.272;8.052;2023-05-10T03:46:32;14.80;99.90
40960;DHT22;27842;52.272;8.052;2023-05-10T03:48:58;14.70;99.90
40960;DHT22;27842;52.272;8.052;2023-05-10T03:51:24;14.70;99.90
40960;DHT22;27842;52.272;8.052;2023-05-10T03:53:53;14.70;99.90
40960;DHT22;27842;52.272;8.052;2023-05-10T03:56:19;14.70;99.90
40960;DHT22;27842;52.272;8.052;2023-05-10T03:58:46;14.70;99.90
40960;DHT22;27842;52.272;8.052;2023-05-10T04:01:11;14.70;99.90
40960;DHT22;27842;52.272;8.052;2023-05-10T04:03:37;14.70;99.90
40960;DHT22;27842;52.272;8.052;2023-05-10T04:06:03;14.70;99.90
40960;DHT22;27842;52.272;8.052;2023-05-10T04:08:29;14.60;99.90
40960;DHT22;27842;52.272;8.052;2023-05-10T04:11:05;14.60;99.90
40960;DHT22;27842;52.272;8.052;2023-05-10T04:13:31;14.60;99.90
40960;DHT22;27842;52.272;8.052;2023-05-10T04:15:57;14.60;99.90
40960;DHT22;27842;52.272;8.052;2023-05-10T04:18:23;14.60;99.90
40960;DHT22;27842;52.272;8.052;2023-05-10T04:20:48;14.60;99.90
40960;DHT22;27842;52.272;8.052;2023-05-10T04:23:14;14.60;99.90
40960;DHT22;27842;52.272;8.052;2023-05-10T04:25:42;14.60;99.90
40960;DHT22;27842;52.272;8.052;2023-05-10T04:28:07;14.60;99.90
40960;DHT22;27842;52.272;8.052;2023-05-10T04:30:33;14.60;99.90
40960;DHT22;27842;52.272;8.052;2023-05-10T04:32:58;14.60;99.90
40960;DHT22;27842;52.272;8.052;2023-05-10T04:35:24;14.60;99.90
40960;DHT22;27842;52.272;8.052;2023-05-10T04:37:50;14.60;99.90
40960;DHT22;27842;52.272;8.052;2023-05-10T04:40:15;14.60;99.90
40960;DHT22;27842;52.272;8.052;2023-05-10T04:42:41;14.50;99.90
40960;DHT22;27842;52.272;8.052;2023-05-10T04:45:07;14.50;99.90
40960;DHT22;27842;52.272;8.052;2023-05-10T04:47:32;14.50;99.90
40960;DHT22;27842;52.272;8.052;2023-05-10T04:49:58;14.50;99.90
40960;DHT22;27842;52.272;8.052;2023-05-10T04:52:24;14.50;99.90
40960;DHT22;27842;52.272;8.052;2023-05-10T04:54:52;14.50;99.90
40960;DHT22;27842;52.272;8.052;2023-05-10T04:57:17;14.50;99.90
40960;DHT22;27842;52.272;8.052;2023-05-10T04:59:43;14.50;99.90
40960;DHT22;27842;52.272;8.052;2023-05-10T05:02:08;14.50;99.90
40960;DHT22;27842;52.272;8.052;2023-05-10T05:04:34;14.50;99.90
40960;DHT22;27842;52.272;8.052;2023-05-10T05:07:00;14.50;99.90
40960;DHT22;27842;52.272;8.052;2023-05-10T05:09:25;14.40;99.90
40960;DHT22;27842;52.272;8.052;2023-05-10T05:11:51;14.50;99.90
40960;DHT22;27842;52.272;8.052;2023-05-10T05:14:16;14.50;99.90
40960;DHT22;27842;52.272;8.052;2023-05-10T05:16:42;14.50;99.90
40960;DHT22;27842;52.272;8.052;2023-05-10T05:19:08;14.50;99.90
40960;DHT22;27842;52.272;8.052;2023-05-10T05:28:43;14.50;99.90
40960;DHT22;27842;52.272;8.052;2023-05-10T05:31:09;14.50;99.90
40960;DHT22;27842;52.272;8.052;2023-05-10T05:33:35;14.50;99.90
40960;DHT22;27842;52.272;8.052;2023-05-10T05:36:01;14.50;99.90
40960;DHT22;27842;52.272;8.052;2023-05-10T05:38:27;14.40;99.90
40960;DHT22;27842;52.272;8.052;2023-05-10T05:40:52;14.40;99.90
40960;DHT22;27842;52.272;8.052;2023-05-10T05:43:18;14.40;99.90
40960;DHT22;27842;52.272;8.052;2023-05-10T05:45:43;14.40;99.90
40960;DHT22;27842;52.272;8.052;2023-05-10T05:48:09;14.50;99.90
40960;DHT22;27842;52.272;8.052;2023-05-10T05:50:34;14.50;99.90
40960;DHT22;27842;52.272;8.052;2023-05-10T05:53:00;14.50;99.90
40960;DHT22;27842;52.272;8.052;2023-05-10T05:55:26;14.50;99.90
40960;DHT22;27842;52.272;8.052;2023-05-10T05:57:51;14.50;99.90
40960;DHT22;27842;52.272;8.052;2023-05-10T06:00:17;14.50;99.90
40960;DHT22;27842;52.272;8.052;2023-05-10T06:02:43;14.50;99.90
40960;DHT22;27842;52.272;8.052;2023-05-10T06:05:09;14.50;99.90
40960;DHT22;27842;52.272;8.052;2023-05-10T06:07:34;14.50;99.90
40960;DHT22;27842;52.272;8.052;2023-05-10T06:10:00;14.50;99.90
40960;DHT22;27842;52.272;8.052;2023-05-10T06:12:25;14.50;99.90
40960;DHT22;27842;52.272;8.052;2023-05-10T06:14:51;14.50;99.90
40960;DHT22;27842;52.272;8.052;2023-05-10T06:17:16;14.50;99.90
40960;DHT22;27842;52.272;8.052;2023-05-10T06:19:42;14.40;99.90
40960;DHT22;27842;52.272;8.052;2023-05-10T06:22:08;14.40;99.90
40960;DHT22;27842;52.272;8.052;2023-05-10T06:24:33;14.40;99.90
40960;DHT22;27842;52.272;8.052;2023-05-10T06:26:59;14.40;99.90
40960;DHT22;27842;52.272;8.052;2023-05-10T06:29:25;14.50;99.90
40960;DHT22;27842;52.272;8.052;2023-05-10T06:31:51;14.50;99.90
40960;DHT22;27842;52.272;8.052;2023-05-10T06:34:17;14.50;99.90
40960;DHT22;27842;52.272;8.052;2023-05-10T06:36:42;14.40;99.90
40960;DHT22;27842;52.272;8.052;2023-05-10T06:39:08;14.40;99.90
40960;DHT22;27842;52.272;8.052;2023-05-10T06:41:33;14.40;99.90
40960;DHT22;27842;52.272;8.052;2023-05-10T06:43:59;14.50;99.90
40960;DHT22;27842;52.272;8.052;2023-05-10T06:46:24;14.40;99.90
40960;DHT22;27842;52.272;8.052;2023-05-10T06:48:50;14.50;99.90
40960;DHT22;27842;52.272;8.052;2023-05-10T06:51:15;14.40;99.90
40960;DHT22;27842;52.272;8.052;2023-05-10T06:53:41;14.40;99.90
40960;DHT22;27842;52.272;8.052;2023-05-10T06:56:06;14.50;99.90
40960;DHT22;27842;52.272;8.052;2023-05-10T06:58:32;14.50;99.90
40960;DHT22;27842;52.272;8.052;2023-05-10T07:01:02;14.50;99.90
40960;DHT22;27842;52.272;8.052;2023-05-10T07:03:28;14.50;99.90
40960;DHT22;27842;52.272;8.052;2023-05-10T07:05:54;14.50;99.90
40960;DHT22;27842;52.272;8.052;2023-05-10T07:08:20;14.50;99.90
40960;DHT22;27842;52.272;8.052;2023-05-10T07:10:45;14.50;99.90
40960;DHT22;27842;52.272;8.052;2023-05-10T07:13:11;14.50;99.90
40960;DHT22;27842;52.272;8.052;2023-05-10T07:15:37;14.60;99.90
40960;DHT22;27842;52.272;8.052;2023-05-10T07:18:02;14.60;99.90
40960;DHT22;27842;52.272;8.052;2023-05-10T07:20:29;14.60;99.90
40960;DHT22;27842;52.272;8.052;2023-05-10T07:22:55;14.70;99.90
40960;DHT22;27842;52.272;8.052;2023-05-10T07:25:20;14.60;99.90
40960;DHT22;27842;52.272;8.052;2023-05-10T07:27:46;14.60;99.90
40960;DHT22;27842;52.272;8.052;2023-05-10T07:30:13;14.60;99.90
40960;DHT22;27842;52.272;8.052;2023-05-10T07:32:39;14.60;99.90
40960;DHT22;27842;52.272;8.052;2023-05-10T07:35:07;14.60;99.90
40960;DHT22;27842;52.272;8.052;2023-05-10T07:37:33;14.70;99.90
40960;DHT22;27842;52.272;8.052;2023-05-10T07:39:58;14.60;99.90
40960;DHT22;27842;52.272;8.052;2023-05-10T07:42:24;14.70;99.90
40960;DHT22;27842;52.272;8.052;2023-05-10T07:44:49;14.70;99.90
40960;DHT22;27842;52.272;8.052;2023-05-10T07:47:15;14.70;99.90
40960;DHT22;27842;52.272;8.052;2023-05-10T07:49:40;14.70;99.90
40960;DHT22;27842;52.272;8.052;2023-05-10T07:52:06;14.70;99.90
40960;DHT22;27842;52.272;8.052;2023-05-10T07:54:31;14.80;99.90
40960;DHT22;27842;52.272;8.052;2023-05-10T07:56:57;14.80;99.90
40960;DHT22;27842;52.272;8.052;2023-05-10T07:59:23;14.80;99.90
40960;DHT22;27842;52.272;8.052;2023-05-10T08:01:48;14.80;99.90
40960;DHT22;27842;52.272;8.052;2023-05-10T08:04:14;14.80;99.90
40960;DHT22;27842;52.272;8.052;2023-05-10T08:06:40;14.90;99.90
40960;DHT22;27842;52.272;8.052;2023-05-10T08:09:05;14.90;99.90
40960;DHT22;27842;52.272;8.052;2023-05-10T08:11:31;14.90;99.90
40960;DHT22;27842;52.272;8.052;2023-05-10T08:13:57;14.90;99.90
40960;DHT22;27842;52.272;8.052;2023-05-10T08:16:22;15.00;99.90
40960;DHT22;27842;52.272;8.052;2023-05-10T08:18:48;15.00;99.90
40960;DHT22;27842;52.272;8.052;2023-05-10T08:21:15;15.00;99.90
40960;DHT22;27842;52.272;8.052;2023-05-10T08:23:40;15.00;99.90
40960;DHT22;27842;52.272;8.052;2023-05-10T08:26:06;15.00;99.90
40960;DHT22;27842;52.272;8.052;2023-05-10T08:28:32;15.10;99.90
40960;DHT22;27842;52.272;8.052;2023-05-10T08:30:57;15.20;99.90
40960;DHT22;27842;52.272;8.052;2023-05-10T08:33:23;15.20;99.90
40960;DHT22;27842;52.272;8.052;2023-05-10T08:35:48;15.20;99.90
40960;DHT22;27842;52.272;8.052;2023-05-10T08:38:14;15.30;99.90
40960;DHT22;27842;52.272;8.052;2023-05-10T08:40:44;15.30;99.90
40960;DHT22;27842;52.272;8.052;2023-05-10T08:43:11;15.40;99.90
40960;DHT22;27842;52.272;8.052;2023-05-10T08:45:39;15.40;99.90
40960;DHT22;27842;52.272;8.052;2023-05-10T08:48:06;15.40;99.90
40960;DHT22;27842;52.272;8.052;2023-05-10T08:50:35;15.50;99.90
40960;DHT22;27842;52.272;8.052;2023-05-10T08:53:04;15.60;99.90
40960;DHT22;27842;52.272;8.052;2023-05-10T08:55:32;15.60;99.90
40960;DHT22;27842;52.272;8.052;2023-05-10T08:57:59;15.60;99.90
40960;DHT22;27842;52.272;8.052;2023-05-10T09:00:26;15.70;99.90
40960;DHT22;27842;52.272;8.052;2023-05-10T09:02:52;15.70;99.90
40960;DHT22;27842;52.272;8.052;2023-05-10T09:05:19;15.70;99.90
40960;DHT22;27842;52.272;8.052;2023-05-10T09:07:45;15.70;99.90
40960;DHT22;27842;52.272;8.052;2023-05-10T09:10:11;15.70;99.90
40960;DHT22;27842;52.272;8.052;2023-05-10T09:12:38;15.70;99.90
40960;DHT22;27842;52.272;8.052;2023-05-10T09:15:05;15.80;99.90
40960;DHT22;27842;52.272;8.052;2023-05-10T09:17:32;15.80;99.90
40960;DHT22;27842;52.272;8.052;2023-05-10T09:19:59;15.80;99.90
40960;DHT22;27842;52.272;8.052;2023-05-10T09:22:25;15.80;99.90
40960;DHT22;27842;52.272;8.052;2023-05-10T09:25:14;15.80;99.90
40960;DHT22;27842;52.272;8.052;2023-05-10T09:27:43;15.80;99.90
40960;DHT22;27842;52.272;8.052;2023-05-10T09:30:10;15.90;99.90
40960;DHT22;27842;52.272;8.052;2023-05-10T09:32:44;15.90;99.90
40960;DHT22;27842;52.272;8.052;2023-05-10T09:35:12;15.90;99.90
40960;DHT22;27842;52.272;8.052;2023-05-10T09:37:42;15.90;99.90
40960;DHT22;27842;52.272;8.052;2023-05-10T09:42:38;16.00;99.90
40960;DHT22;27842;52.272;8.052;2023-05-10T09:45:04;16.00;99.90
40960;DHT22;27842;52.272;8.052;2023-05-10T09:47:36;16.00;99.90
40960;DHT22;27842;52.272;8.052;2023-05-10T09:50:03;16.10;99.90
40960;DHT22;27842;52.272;8.052;2023-05-10T09:52:50;16.00;99.90
40960;DHT22;27842;52.272;8.052;2023-05-10T09:55:21;16.10;99.90
40960;DHT22;27842;52.272;8.052;2023-05-10T09:57:48;16.10;99.90
40960;DHT22;27842;52.272;8.052;2023-05-10T10:00:20;16.20;99.90
40960;DHT22;27842;52.272;8.052;2023-05-10T10:02:55;16.20;99.90
40960;DHT22;27842;52.272;8.052;2023-05-10T10:05:20;16.20;99.90
40960;DHT22;27842;52.272;8.052;2023-05-10T10:07:46;16.20;99.90
40960;DHT22;27842;52.272;8.052;2023-05-10T10:10:14;16.30;99.90
40960;DHT22;27842;52.272;8.052;2023-05-10T10:12:41;16.30;99.90
40960;DHT22;27842;52.272;8.052;2023-05-10T10:15:08;16.30;99.90
40960;DHT22;27842;52.272;8.052;2023-05-10T10:17:36;16.30;99.90
40960;DHT22;27842;52.272;8.052;2023-05-10T10:20:06;16.30;99.90
40960;DHT22;27842;52.272;8.052;2023-05-10T10:22:32;16.40;99.90
40960;DHT22;27842;52.272;8.052;2023-05-10T10:24:58;16.40;99.90
40960;DHT22;27842;52.272;8.052;2023-05-10T10:35:55;16.50;99.90
40960;DHT22;27842;52.272;8.052;2023-05-10T10:38:23;16.50;99.90
40960;DHT22;27842;52.272;8.052;2023-05-10T10:50:19;16.60;99.90
40960;DHT22;27842;52.272;8.052;2023-05-10T10:53:10;16.60;99.90
40960;DHT22;27842;52.272;8.052;2023-05-10T10:55:49;16.60;99.90
40960;DHT22;27842;52.272;8.052;2023-05-10T10:58:30;16.60;99.90
40960;DHT22;27842;52.272;8.052;2023-05-10T11:01:22;16.70;99.90
40960;DHT22;27842;52.272;8.052;2023-05-10T11:06:33;16.70;99.90
40960;DHT22;27842;52.272;8.052;2023-05-10T11:08:59;16.80;99.90
40960;DHT22;27842;52.272;8.052;2023-05-10T11:11:25;16.80;99.90
40960;DHT22;27842;52.272;8.052;2023-05-10T11:13:51;16.80;99.90
40960;DHT22;27842;52.272;8.052;2023-05-10T11:16:21;16.80;99.90
40960;DHT22;27842;52.272;8.052;2023-05-10T11:19:07;16.90;99.90
40960;DHT22;27842;52.272;8.052;2023-05-10T11:21:34;16.90;99.90
40960;DHT22;27842;52.272;8.052;2023-05-10T11:24:00;17.00;99.90
40960;DHT22;27842;52.272;8.052;2023-05-10T11:26:32;17.10;99.90
40960;DHT22;27842;52.272;8.052;2023-05-10T11:28:58;17.20;99.90
40960;DHT22;27842;52.272;8.052;2023-05-10T11:31:26;17.30;99.90
40960;DHT22;27842;52.272;8.052;2023-05-10T11:33:56;17.30;99.90
40960;DHT22;27842;52.272;8.052;2023-05-10T11:36:28;17.30;99.90
40960;DHT22;27842;52.272;8.052;2023-05-10T11:38:55;17.40;99.90
40960;DHT22;27842;52.272;8.052;2023-05-10T11:41:22;17.40;99.90
40960;DHT22;27842;52.272;8.052;2023-05-10T11:43:50;17.40;99.90
40960;DHT22;27842;52.272;8.052;2023-05-10T11:46:18;17.50;99.90
40960;DHT22;27842;52.272;8.052;2023-05-10T11:48:46;17.70;99.90
40960;DHT22;27842;52.272;8.052;2023-05-10T11:51:12;17.80;99.90
40960;DHT22;27842;52.272;8.052;2023-05-10T11:53:37;17.90;99.90
40960;DHT22;27842;52.272;8.052;2023-05-10T11:56:12;18.00;99.90
40960;DHT22;27842;52.272;8.052;2023-05-10T11:58:39;18.10;99.90
40960;DHT22;27842;52.272;8.052;2023-05-10T12:01:06;18.10;99.90
40960;DHT22;27842;52.272;8.052;2023-05-10T12:03:32;18.20;99.90
40960;DHT22;27842;52.272;8.052;2023-05-10T12:05:58;18.20;99.90
40960;DHT22;27842;52.272;8.052;2023-05-10T12:08:26;18.20;99.90
40960;DHT22;27842;52.272;8.052;2023-05-10T12:10:53;18.30;99.90
40960;DHT22;27842;52.272;8.052;2023-05-10T12:13:20;18.30;99.90
40960;DHT22;27842;52.272;8.052;2023-05-10T12:15:46;18.40;99.90
40960;DHT22;27842;52.272;8.052;2023-05-10T12:18:13;18.50;99.90
40960;DHT22;27842;52.272;8.052;2023-05-10T12:20:40;18.60;99.90
40960;DHT22;27842;52.272;8.052;2023-05-10T12:23:07;18.70;99.90
40960;DHT22;27842;52.272;8.052;2023-05-10T12:25:34;18.70;99.90
40960;DHT22;27842;52.272;8.052;2023-05-10T12:28:04;18.90;99.90
40960;DHT22;27842;52.272;8.052;2023-05-10T12:30:32;19.00;99.90
40960;DHT22;27842;52.272;8.052;2023-05-10T12:33:13;18.90;99.90
40960;DHT22;27842;52.272;8.052;2023-05-10T12:35:47;19.10;99.90
40960;DHT22;27842;52.272;8.052;2023-05-10T12:38:37;19.10;99.90
40960;DHT22;27842;52.272;8.052;2023-05-10T12:41:08;19.10;99.90
40960;DHT22;27842;52.272;8.052;2023-05-10T12:43:34;19.10;99.90
40960;DHT22;27842;52.272;8.052;2023-05-10T12:46:14;19.20;99.70
40960;DHT22;27842;52.272;8.052;2023-05-10T12:48:41;19.30;99.50
40960;DHT22;27842;52.272;8.052;2023-05-10T12:51:08;19.30;99.50
40960;DHT22;27842;52.272;8.052;2023-05-10T12:53:35;19.30;99.20
40960;DHT22;27842;52.272;8.052;2023-05-10T12:56:01;19.20;99.20
40960;DHT22;27842;52.272;8.052;2023-05-10T12:58:26;19.20;99.20
40960;DHT22;27842;52.272;8.052;2023-05-10T13:00:52;19.20;99.10
40960;DHT22;27842;52.272;8.052;2023-05-10T13:03:18;19.00;99.00
40960;DHT22;27842;52.272;8.052;2023-05-10T13:05:44;19.10;99.00
40960;DHT22;27842;52.272;8.052;2023-05-10T13:08:10;19.20;99.00
40960;DHT22;27842;52.272;8.052;2023-05-10T13:10:35;19.30;98.90
40960;DHT22;27842;52.272;8.052;2023-05-10T13:13:01;19.50;98.90
40960;DHT22;27842;52.272;8.052;2023-05-10T13:15:28;19.60;98.60
40960;DHT22;27842;52.272;8.052;2023-05-10T13:17:54;19.70;98.50
40960;DHT22;27842;52.272;8.052;2023-05-10T13:20:20;19.70;98.40
40960;DHT22;27842;52.272;8.052;2023-05-10T13:22:46;19.80;98.40
40960;DHT22;27842;52.272;8.052;2023-05-10T13:25:12;19.80;98.20
40960;DHT22;27842;52.272;8.052;2023-05-10T13:27:39;19.70;98.00
40960;DHT22;27842;52.272;8.052;2023-05-10T13:30:05;19.60;97.70
40960;DHT22;27842;52.272;8.052;2023-05-10T13:32:31;19.50;97.80
40960;DHT22;27842;52.272;8.052;2023-05-10T13:34:56;19.50;97.80
40960;DHT22;27842;52.272;8.052;2023-05-10T13:37:22;19.30;97.60
40960;DHT22;27842;52.272;8.052;2023-05-10T13:39:48;19.20;97.90
40960;DHT22;27842;52.272;8.052;2023-05-10T13:42:14;19.10;98.00
40960;DHT22;27842;52.272;8.052;2023-05-10T13:44:39;19.00;98.00
40960;DHT22;27842;52.272;8.052;2023-05-10T13:47:05;18.90;98.20
40960;DHT22;27842;52.272;8.052;2023-05-10T13:49:31;18.80;98.20
40960;DHT22;27842;52.272;8.052;2023-05-10T13:51:56;18.80;98.30
40960;DHT22;27842;52.272;8.052;2023-05-10T13:54:24;18.70;98.20
40960;DHT22;27842;52.272;8.052;2023-05-10T13:56:49;18.80;98.60
40960;DHT22;27842;52.272;8.052;2023-05-10T13:59:15;18.90;98.70
40960;DHT22;27842;52.272;8.052;2023-05-10T14:01:41;18.90;98.60
40960;DHT22;27842;52.272;8.052;2023-05-10T14:04:08;18.90;98.20
40960;DHT22;27842;52.272;8.052;2023-05-10T14:06:36;18.90;98.10
40960;DHT22;27842;52.272;8.052;2023-05-10T14:09:02;18.90;98.10
40960;DHT22;27842;52.272;8.052;2023-05-10T14:11:27;18.90;98.30
40960;DHT22;27842;52.272;8.052;2023-05-10T14:13:53;19.00;98.30
40960;DHT22;27842;52.272;8.052;2023-05-10T14:16:19;19.20;98.10
40960;DHT22;27842;52.272;8.052;2023-05-10T14:18:45;19.30;97.50
40960;DHT22;27842;52.272;8.052;2023-05-10T14:21:11;19.30;97.20
40960;DHT22;27842;52.272;8.052;2023-05-10T14:23:37;19.20;97.30
40960;DHT22;27842;52.272;8.052;2023-05-10T14:26:02;19.20;97.30
40960;DHT22;27842;52.272;8.052;2023-05-10T14:28:28;19.00;97.30
40960;DHT22;27842;52.272;8.052;2023-05-10T14:30:54;19.00;97.30
40960;DHT22;27842;52.272;8.052;2023-05-10T14:33:19;18.90;97.50
40960;DHT22;27842;52.272;8.052;2023-05-10T14:35:46;18.90;97.50
40960;DHT22;27842;52.272;8.052;2023-05-10T14:38:12;18.70;97.60
40960;DHT22;27842;52.272;8.052;2023-05-10T14:40:38;18.70;97.80
40960;DHT22;27842;52.272;8.052;2023-05-10T14:43:03;18.60;97.80
40960;DHT22;27842;52.272;8.052;2023-05-10T14:45:29;18.60;97.90
40960;DHT22;27842;52.272;8.052;2023-05-10T14:47:54;18.50;97.80
40960;DHT22;27842;52.272;8.052;2023-05-10T14:50:20;18.50;97.90
40960;DHT22;27842;52.272;8.052;2023-05-10T14:52:46;18.40;98.00
40960;DHT22;27842;52.272;8.052;2023-05-10T14:55:11;18.40;98.10
40960;DHT22;27842;52.272;8.052;2023-05-10T14:57:37;18.40;98.10
40960;DHT22;27842;52.272;8.052;2023-05-10T15:00:03;18.30;98.10
40960;DHT22;27842;52.272;8.052;2023-05-10T15:02:30;18.20;98.10
40960;DHT22;27842;52.272;8.052;2023-05-10T15:04:56;18.20;98.20
40960;DHT22;27842;52.272;8.052;2023-05-10T15:07:23;18.20;98.20
40960;DHT22;27842;52.272;8.052;2023-05-10T15:09:49;18.20;98.10
40960;DHT22;27842;52.272;8.052;2023-05-10T15:12:15;18.20;98.10
40960;DHT22;27842;52.272;8.052;2023-05-10T15:14:41;18.30;98.00
40960;DHT22;27842;52.272;8.052;2023-05-10T15:17:07;18.30;97.70
40960;DHT22;27842;52.272;8.052;2023-05-10T15:19:33;18.40;97.80
40960;DHT22;27842;52.272;8.052;2023-05-10T15:21:58;18.40;97.80
40960;DHT22;27842;52.272;8.052;2023-05-10T15:24:24;18.50;97.70
40960;DHT22;27842;52.272;8.052;2023-05-10T15:26:50;18.50;97.60
40960;DHT22;27842;52.272;8.052;2023-05-10T15:29:15;18.50;97.50
40960;DHT22;27842;52.272;8.052;2023-05-10T15:31:46;18.50;97.30
40960;DHT22;27842;52.272;8.052;2023-05-10T15:34:12;18.50;97.30
40960;DHT22;27842;52.272;8.052;2023-05-10T15:36:38;18.50;97.40
40960;DHT22;27842;52.272;8.052;2023-05-10T15:39:03;18.60;97.30
40960;DHT22;27842;52.272;8.052;2023-05-10T15:41:29;18.60;97.10
40960;DHT22;27842;52.272;8.052;2023-05-10T15:43:55;18.50;97.10
40960;DHT22;27842;52.272;8.052;2023-05-10T15:46:21;18.50;97.20
40960;DHT22;27842;52.272;8.052;2023-05-10T15:48:46;18.50;97.20
40960;DHT22;27842;52.272;8.052;2023-05-10T15:51:12;18.50;97.10
40960;DHT22;27842;52.272;8.052;2023-05-10T15:53:38;18.50;97.10
40960;DHT22;27842;52.272;8.052;2023-05-10T15:56:04;18.40;97.00
40960;DHT22;27842;52.272;8.052;2023-05-10T15:58:30;18.40;97.10
40960;DHT22;27842;52.272;8.052;2023-05-10T16:00:56;18.40;97.00
40960;DHT22;27842;52.272;8.052;2023-05-10T16:03:22;18.40;97.00
40960;DHT22;27842;52.272;8.052;2023-05-10T16:05:47;18.40;97.00
40960;DHT22;27842;52.272;8.052;2023-05-10T16:08:13;18.40;97.00
40960;DHT22;27842;52.272;8.052;2023-05-10T16:10:39;18.40;97.00
40960;DHT22;27842;52.272;8.052;2023-05-10T16:13:05;18.30;97.00
40960;DHT22;27842;52.272;8.052;2023-05-10T16:15:30;18.30;96.80
40960;DHT22;27842;52.272;8.052;2023-05-10T16:17:56;18.30;96.80